sensor_id;sensor_type;location;lat;lon;timestamp;pressure;altitude;pressure_sealevel;temperature;humidity
31044;BME280;17710;52.520;13.352;2022-11-28T00:01:47;101752.16;;;9.58;56.08
31044;BME280;17710;52.520;13.352;2022-11-28T00:04:14;101741.69;;;9.54;56.17
31044;BME280;17710;52.520;13.352;2022-11-28T00:06:43;101731.00;;;9.63;56.04
31044;BME280;17710;52.520;13.352;2022-11-28T00:09:11;101740.38;;;9.81;55.67
31044;BME280;17710;52.520;13.352;2022-11-28T00:11:39;101727.28;;;9.73;55.50
31044;BME280;17710;52.520;13.352;2022-11-28T00:14:09;101729.94;;;9.72;55.73
31044;BME280;17710;52.520;13.352;2022-11-28T00:16:37;101730.25;;;9.55;55.92
31044;BME280;17710;52.520;13.352;2022-11-28T00:19:04;101724.94;;;9.58;56.04
31044;BME280;17710;52.520;13.352;2022-11-28T00:21:31;101716.72;;;9.75;55.47
31044;BME280;17710;52.520;13.352;2022-11-28T00:23:58;101718.59;;;9.67;55.56
31044;BME280;17710;52.520;13.352;2022-11-28T00:26:27;101720.34;;;9.69;55.69
31044;BME280;17710;52.520;13.352;2022-11-28T00:28:54;101712.56;;;9.60;55.82
31044;BME280;17710;52.520;13.352;2022-11-28T00:31:22;101712.34;;;9.74;55.64
31044;BME280;17710;52.520;13.352;2022-11-28T00:33:50;101704.47;;;9.71;55.61
31044;BME280;17710;52.520;13.352;2022-11-28T00:36:18;101704.47;;;9.71;55.54
31044;BME280;17710;52.520;13.352;2022-11-28T00:38:45;101711.25;;;9.85;55.00
31044;BME280;17710;52.520;13.352;2022-11-28T00:41:13;101704.84;;;9.98;54.76
31044;BME280;17710;52.520;13.352;2022-11-28T00:43:41;101703.22;;;9.91;55.30
31044;BME280;17710;52.520;13.352;2022-11-28T00:46:08;101709.47;;;9.86;55.20
31044;BME280;17710;52.520;13.352;2022-11-28T00:48:35;101710.75;;;10.13;54.69
31044;BME280;17710;52.520;13.352;2022-11-28T00:51:08;101711.00;;;10.00;54.80
31044;BME280;17710;52.520;13.352;2022-11-28T00:53:35;101708.41;;;9.97;54.67
31044;BME280;17710;52.520;13.352;2022-11-28T00:56:03;101704.81;;;10.02;54.93
31044;BME280;17710;52.520;13.352;2022-11-28T00:58:30;101705.84;;;9.91;55.24
31044;BME280;17710;52.520;13.352;2022-11-28T01:00:57;101698.91;;;9.86;55.57
31044;BME280;17710;52.520;13.352;2022-11-28T01:03:23;101697.91;;;9.94;55.32
31044;BME280;17710;52.520;13.352;2022-11-28T01:05:49;101687.91;;;9.61;55.81
31044;BME280;17710;52.520;13.352;2022-11-28T01:08:17;101691.41;;;9.63;56.02
31044;BME280;17710;52.520;13.352;2022-11-28T01:10:47;101687.72;;;9.72;55.81
31044;BME280;17710;52.520;13.352;2022-11-28T01:13:13;101678.97;;;9.70;55.95
31044;BME280;17710;52.520;13.352;2022-11-28T01:15:41;101674.34;;;9.84;55.51
31044;BME280;17710;52.520;13.352;2022-11-28T01:18:07;101674.50;;;9.75;55.74
31044;BME280;17710;52.520;13.352;2022-11-28T01:20:34;101670.22;;;9.66;55.55
31044;BME280;17710;52.520;13.352;2022-11-28T01:23:00;101670.97;;;9.74;55.18
31044;BME280;17710;52.520;13.352;2022-11-28T01:25:29;101665.66;;;9.77;55.74
31044;BME280;17710;52.520;13.352;2022-11-28T01:27:58;101663.84;;;9.79;55.63
31044;BME280;17710;52.520;13.352;2022-11-28T01:30:25;101661.50;;;9.64;55.74
31044;BME280;17710;52.520;13.352;2022-11-28T01:32:52;101655.78;;;9.36;56.87
31044;BME280;17710;52.520;13.352;2022-11-28T01:35:18;101657.41;;;9.45;56.44
31044;BME280;17710;52.520;13.352;2022-11-28T01:37:45;101662.41;;;9.62;56.24
31044;BME280;17710;52.520;13.352;2022-11-28T01:40:14;101658.09;;;9.56;56.17
31044;BME280;17710;52.520;13.352;2022-11-28T01:42:42;101652.81;;;9.56;56.25
31044;BME280;17710;52.520;13.352;2022-11-28T01:45:15;101647.56;;;9.56;56.16
31044;BME280;17710;52.520;13.352;2022-11-28T01:47:43;101638.88;;;9.48;55.82
31044;BME280;17710;52.520;13.352;2022-11-28T01:50:11;101647.22;;;9.74;55.40
31044;BME280;17710;52.520;13.352;2022-11-28T01:52:40;101648.22;;;9.69;55.70
31044;BME280;17710;52.520;13.352;2022-11-28T01:55:10;101636.94;;;9.59;55.71
31044;BME280;17710;52.520;13.352;2022-11-28T01:57:38;101633.91;;;9.80;55.10
31044;BME280;17710;52.520;13.352;2022-11-28T02:00:13;101629.97;;;9.55;55.63
31044;BME280;17710;52.520;13.352;2022-11-28T02:02:43;101626.56;;;9.50;55.99
31044;BME280;17710;52.520;13.352;2022-11-28T02:05:11;101626.09;;;9.76;55.26
31044;BME280;17710;52.520;13.352;2022-11-28T02:07:40;101627.19;;;9.63;55.46
31044;BME280;17710;52.520;13.352;2022-11-28T02:10:10;101620.09;;;9.66;55.43
31044;BME280;17710;52.520;13.352;2022-11-28T02:12:55;101621.75;;;9.72;55.01
31044;BME280;17710;52.520;13.352;2022-11-28T02:15:39;101617.38;;;9.71;55.45
31044;BME280;17710;52.520;13.352;2022-11-28T02:18:18;101615.13;;;9.49;55.28
31044;BME280;17710;52.520;13.352;2022-11-28T02:21:08;101605.69;;;9.35;55.95
31044;BME280;17710;52.520;13.352;2022-11-28T02:27:09;101603.84;;;9.40;55.96
31044;BME280;17710;52.520;13.352;2022-11-28T02:30:02;101602.69;;;9.57;54.89
31044;BME280;17710;52.520;13.352;2022-11-28T02:32:43;101599.19;;;9.54;55.14
31044;BME280;17710;52.520;13.352;2022-11-28T02:35:17;101603.72;;;9.46;55.33
31044;BME280;17710;52.520;13.352;2022-11-28T02:37:51;101602.34;;;9.25;55.90
31044;BME280;17710;52.520;13.352;2022-11-28T02:40:24;101594.59;;;9.16;55.79
31044;BME280;17710;52.520;13.352;2022-11-28T02:43:02;101589.16;;;9.25;56.19
31044;BME280;17710;52.520;13.352;2022-11-28T02:45:36;101586.44;;;9.31;55.66
31044;BME280;17710;52.520;13.352;2022-11-28T02:48:08;101596.22;;;9.25;56.03
31044;BME280;17710;52.520;13.352;2022-11-28T02:50:38;101591.03;;;9.18;56.10
31044;BME280;17710;52.520;13.352;2022-11-28T02:53:11;101590.78;;;9.32;55.30
31044;BME280;17710;52.520;13.352;2022-11-28T02:55:39;101577.75;;;9.25;55.96
31044;BME280;17710;52.520;13.352;2022-11-28T02:58:08;101579.06;;;8.98;56.51
31044;BME280;17710;52.520;13.352;2022-11-28T03:00:37;101576.25;;;9.08;56.33
31044;BME280;17710;52.520;13.352;2022-11-28T03:03:24;101580.34;;;9.26;55.75
31044;BME280;17710;52.520;13.352;2022-11-28T03:05:57;101569.25;;;9.06;56.42
31044;BME280;17710;52.520;13.352;2022-11-28T03:08:34;101572.44;;;9.26;56.21
31044;BME280;17710;52.520;13.352;2022-11-28T03:11:07;101560.41;;;9.10;56.35
31044;BME280;17710;52.520;13.352;2022-11-28T03:13:38;101563.06;;;9.07;56.40
31044;BME280;17710;52.520;13.352;2022-11-28T03:16:13;101563.03;;;9.10;56.28
31044;BME280;17710;52.520;13.352;2022-11-28T03:18:49;101559.78;;;8.94;56.87
31044;BME280;17710;52.520;13.352;2022-11-28T03:21:24;101558.75;;;9.04;56.53
31044;BME280;17710;52.520;13.352;2022-11-28T03:23:58;101556.97;;;9.05;56.34
31044;BME280;17710;52.520;13.352;2022-11-28T03:26:31;101557.13;;;8.94;56.66
31044;BME280;17710;52.520;13.352;2022-11-28T03:29:03;101556.69;;;9.22;56.20
31044;BME280;17710;52.520;13.352;2022-11-28T03:31:34;101553.06;;;9.27;55.96
31044;BME280;17710;52.520;13.352;2022-11-28T03:34:05;101552.41;;;9.14;56.51
31044;BME280;17710;52.520;13.352;2022-11-28T03:36:36;101548.03;;;9.13;56.34
31044;BME280;17710;52.520;13.352;2022-11-28T03:39:08;101548.41;;;8.92;57.10
31044;BME280;17710;52.520;13.352;2022-11-28T03:41:37;101548.09;;;9.10;56.74
31044;BME280;17710;52.520;13.352;2022-11-28T03:44:07;101549.56;;;9.27;56.45
31044;BME280;17710;52.520;13.352;2022-11-28T03:46:39;101536.50;;;9.19;56.15
31044;BME280;17710;52.520;13.352;2022-11-28T03:49:09;101536.69;;;9.08;56.50
31044;BME280;17710;52.520;13.352;2022-11-28T03:51:39;101539.41;;;9.05;56.50
31044;BME280;17710;52.520;13.352;2022-11-28T03:54:11;101540.31;;;9.01;56.86
31044;BME280;17710;52.520;13.352;2022-11-28T03:56:44;101533.25;;;9.05;56.63
31044;BME280;17710;52.520;13.352;2022-11-28T03:59:16;101537.69;;;9.03;56.71
31044;BME280;17710;52.520;13.352;2022-11-28T04:01:52;101533.25;;;9.05;56.67
31044;BME280;17710;52.520;13.352;2022-11-28T04:04:25;101523.22;;;8.73;57.23
31044;BME280;17710;52.520;13.352;2022-11-28T04:06:55;101529.88;;;8.97;56.83
31044;BME280;17710;52.520;13.352;2022-11-28T04:09:36;101528.16;;;8.93;56.95
31044;BME280;17710;52.520;13.352;2022-11-28T04:12:08;101524.59;;;8.98;56.87
31044;BME280;17710;52.520;13.352;2022-11-28T04:14:40;101514.72;;;9.09;56.78
31044;BME280;17710;52.520;13.352;2022-11-28T04:17:12;101515.72;;;9.02;57.00
31044;BME280;17710;52.520;13.352;2022-11-28T04:19:47;101516.81;;;8.88;57.38
31044;BME280;17710;52.520;13.352;2022-11-28T04:22:17;101518.69;;;8.81;57.37
31044;BME280;17710;52.520;13.352;2022-11-28T04:24:48;101526.00;;;8.64;57.79
31044;BME280;17710;52.520;13.352;2022-11-28T04:27:20;101519.59;;;8.80;57.56
31044;BME280;17710;52.520;13.352;2022-11-28T04:29:50;101513.53;;;8.73;57.70
31044;BME280;17710;52.520;13.352;2022-11-28T04:32:18;101515.94;;;8.89;56.84
31044;BME280;17710;52.520;13.352;2022-11-28T04:34:50;101510.88;;;8.76;57.47
31044;BME280;17710;52.520;13.352;2022-11-28T04:37:18;101507.38;;;8.74;57.75
31044;BME280;17710;52.520;13.352;2022-11-28T04:39:47;101505.41;;;8.89;57.19
31044;BME280;17710;52.520;13.352;2022-11-28T04:42:17;101510.53;;;8.98;56.77
31044;BME280;17710;52.520;13.352;2022-11-28T04:44:51;101503.50;;;8.97;56.89
31044;BME280;17710;52.520;13.352;2022-11-28T04:47:20;101506.22;;;8.92;56.97
31044;BME280;17710;52.520;13.352;2022-11-28T04:49:48;101498.81;;;9.12;56.79
31044;BME280;17710;52.520;13.352;2022-11-28T04:52:19;101502.56;;;8.99;56.73
31044;BME280;17710;52.520;13.352;2022-11-28T04:54:52;101498.16;;;9.01;56.48
31044;BME280;17710;52.520;13.352;2022-11-28T04:57:23;101500.84;;;8.98;56.59
31044;BME280;17710;52.520;13.352;2022-11-28T04:59:52;101504.22;;;9.06;56.77
31044;BME280;17710;52.520;13.352;2022-11-28T05:02:20;101494.63;;;9.01;56.68
31044;BME280;17710;52.520;13.352;2022-11-28T05:04:49;101501.44;;;9.14;56.17
31044;BME280;17710;52.520;13.352;2022-11-28T05:07:17;101502.50;;;9.05;56.47
31044;BME280;17710;52.520;13.352;2022-11-28T05:09:43;101496.75;;;9.31;55.98
31044;BME280;17710;52.520;13.352;2022-11-28T05:12:10;101494.91;;;9.36;55.66
31044;BME280;17710;52.520;13.352;2022-11-28T05:14:36;101501.19;;;9.28;56.11
31044;BME280;17710;52.520;13.352;2022-11-28T05:17:05;101502.84;;;9.33;55.78
31044;BME280;17710;52.520;13.352;2022-11-28T05:19:31;101502.06;;;9.30;55.44
31044;BME280;17710;52.520;13.352;2022-11-28T05:21:59;101501.19;;;9.28;55.41
31044;BME280;17710;52.520;13.352;2022-11-28T05:24:25;101498.56;;;9.28;55.66
31044;BME280;17710;52.520;13.352;2022-11-28T05:26:52;101500.44;;;9.21;55.50
31044;BME280;17710;52.520;13.352;2022-11-28T05:29:18;101495.78;;;9.35;55.23
31044;BME280;17710;52.520;13.352;2022-11-28T05:31:44;101500.03;;;9.44;54.82
31044;BME280;17710;52.520;13.352;2022-11-28T05:34:11;101492.19;;;9.39;54.85
31044;BME280;17710;52.520;13.352;2022-11-28T05:36:37;101489.59;;;9.38;54.95
31044;BME280;17710;52.520;13.352;2022-11-28T05:39:05;101484.38;;;9.33;55.19
31044;BME280;17710;52.520;13.352;2022-11-28T05:41:32;101486.00;;;9.42;55.00
31044;BME280;17710;52.520;13.352;2022-11-28T05:43:59;101483.50;;;9.33;55.16
31044;BME280;17710;52.520;13.352;2022-11-28T05:46:27;101482.63;;;9.34;55.18
31044;BME280;17710;52.520;13.352;2022-11-28T05:48:53;101480.75;;;9.39;55.07
31044;BME280;17710;52.520;13.352;2022-11-28T05:51:20;101480.00;;;9.32;55.22
31044;BME280;17710;52.520;13.352;2022-11-28T05:53:46;101476.34;;;9.39;55.17
31044;BME280;17710;52.520;13.352;2022-11-28T05:56:16;101468.69;;;9.26;55.18
31044;BME280;17710;52.520;13.352;2022-11-28T05:58:42;101471.53;;;9.15;55.11
31044;BME280;17710;52.520;13.352;2022-11-28T06:01:11;101466.03;;;9.27;55.29
31044;BME280;17710;52.520;13.352;2022-11-28T06:03:38;101466.03;;;9.29;54.82
31044;BME280;17710;52.520;13.352;2022-11-28T06:06:10;101466.88;;;9.31;55.02
31044;BME280;17710;52.520;13.352;2022-11-28T06:08:36;101459.22;;;9.15;55.16
31044;BME280;17710;52.520;13.352;2022-11-28T06:11:03;101451.84;;;9.34;54.81
31044;BME280;17710;52.520;13.352;2022-11-28T06:13:31;101458.06;;;9.32;54.68
31044;BME280;17710;52.520;13.352;2022-11-28T06:15:57;101452.25;;;9.13;55.37
31044;BME280;17710;52.520;13.352;2022-11-28T06:18:24;101446.28;;;9.03;55.60
31044;BME280;17710;52.520;13.352;2022-11-28T06:20:53;101436.78;;;8.93;55.97
31044;BME280;17710;52.520;13.352;2022-11-28T06:23:19;101443.28;;;9.22;55.11
31044;BME280;17710;52.520;13.352;2022-11-28T06:25:46;101438.38;;;9.03;55.65
31044;BME280;17710;52.520;13.352;2022-11-28T06:28:12;101444.22;;;9.19;55.07
31044;BME280;17710;52.520;13.352;2022-11-28T06:30:41;101440.06;;;9.06;55.62
31044;BME280;17710;52.520;13.352;2022-11-28T06:33:08;101436.59;;;9.04;55.74
31044;BME280;17710;52.520;13.352;2022-11-28T06:35:34;101442.53;;;9.16;55.29
31044;BME280;17710;52.520;13.352;2022-11-28T06:38:01;101438.38;;;9.03;55.60
31044;BME280;17710;52.520;13.352;2022-11-28T06:40:27;101439.16;;;9.07;55.48
31044;BME280;17710;52.520;13.352;2022-11-28T06:42:54;101435.97;;;8.90;56.17
31044;BME280;17710;52.520;13.352;2022-11-28T06:45:20;101436.88;;;8.89;56.33
31044;BME280;17710;52.520;13.352;2022-11-28T06:47:48;101442.09;;;8.92;56.43
31044;BME280;17710;52.520;13.352;2022-11-28T06:50:15;101439.69;;;8.78;56.38
31044;BME280;17710;52.520;13.352;2022-11-28T06:52:41;101444.25;;;8.67;56.90
31044;BME280;17710;52.520;13.352;2022-11-28T06:55:08;101448.50;;;8.77;56.90
31044;BME280;17710;52.520;13.352;2022-11-28T06:57:34;101445.66;;;8.89;56.61
31044;BME280;17710;52.520;13.352;2022-11-28T07:00:03;101446.88;;;8.70;56.84
31044;BME280;17710;52.520;13.352;2022-11-28T07:02:30;101443.22;;;8.78;56.90
31044;BME280;17710;52.520;13.352;2022-11-28T07:04:58;101440.72;;;8.69;57.23
31044;BME280;17710;52.520;13.352;2022-11-28T07:07:25;101446.53;;;8.88;56.36
31044;BME280;17710;52.520;13.352;2022-11-28T07:09:51;101436.22;;;8.74;57.13
31044;BME280;17710;52.520;13.352;2022-11-28T07:12:17;101441.59;;;8.68;57.12
31044;BME280;17710;52.520;13.352;2022-11-28T07:14:45;101433.38;;;8.88;56.83
31044;BME280;17710;52.520;13.352;2022-11-28T07:17:11;101440.41;;;8.88;56.79
31044;BME280;17710;52.520;13.352;2022-11-28T07:19:49;101429.16;;;8.78;56.96
31044;BME280;17710;52.520;13.352;2022-11-28T07:22:16;101425.66;;;8.77;57.09
31044;BME280;17710;52.520;13.352;2022-11-28T07:24:43;101430.72;;;8.90;56.70
31044;BME280;17710;52.520;13.352;2022-11-28T07:27:09;101426.53;;;8.78;56.82
31044;BME280;17710;52.520;13.352;2022-11-28T07:29:36;101424.69;;;8.82;57.05
31044;BME280;17710;52.520;13.352;2022-11-28T07:32:02;101433.03;;;9.06;56.15
31044;BME280;17710;52.520;13.352;2022-11-28T07:34:30;101434.72;;;9.12;56.16
31044;BME280;17710;52.520;13.352;2022-11-28T07:36:59;101436.75;;;8.95;56.71
31044;BME280;17710;52.520;13.352;2022-11-28T07:39:27;101435.88;;;8.94;56.65
31044;BME280;17710;52.520;13.352;2022-11-28T07:41:56;101430.59;;;8.96;56.56
31044;BME280;17710;52.520;13.352;2022-11-28T07:44:26;101437.13;;;9.23;55.92
31044;BME280;17710;52.520;13.352;2022-11-28T07:46:55;101422.97;;;9.27;55.73
31044;BME280;17710;52.520;13.352;2022-11-28T07:49:24;101426.75;;;9.13;55.93
31044;BME280;17710;52.520;13.352;2022-11-28T07:51:50;101434.59;;;9.18;56.00
31044;BME280;17710;52.520;13.352;2022-11-28T07:54:17;101430.06;;;9.25;56.05
31044;BME280;17710;52.520;13.352;2022-11-28T07:56:47;101426.50;;;9.26;55.76
31044;BME280;17710;52.520;13.352;2022-11-28T07:59:14;101431.03;;;9.19;55.92
31044;BME280;17710;52.520;13.352;2022-11-28T08:01:41;101427.63;;;9.12;56.05
31044;BME280;17710;52.520;13.352;2022-11-28T08:04:08;101429.94;;;9.31;55.71
31044;BME280;17710;52.520;13.352;2022-11-28T08:06:41;101427.22;;;9.34;55.56
31044;BME280;17710;52.520;13.352;2022-11-28T08:09:08;101429.75;;;9.40;55.69
31044;BME280;17710;52.520;13.352;2022-11-28T08:11:45;101413.75;;;9.49;55.35
31044;BME280;17710;52.520;13.352;2022-11-28T08:14:11;101421.78;;;9.43;55.44
31044;BME280;17710;52.520;13.352;2022-11-28T08:16:38;101413.66;;;9.52;55.36
31044;BME280;17710;52.520;13.352;2022-11-28T08:19:09;101417.38;;;9.43;55.34
31044;BME280;17710;52.520;13.352;2022-11-28T08:21:36;101408.66;;;9.40;55.04
31044;BME280;17710;52.520;13.352;2022-11-28T08:24:10;101408.31;;;9.56;55.05
31044;BME280;17710;52.520;13.352;2022-11-28T08:26:37;101404.72;;;9.59;54.54
31044;BME280;17710;52.520;13.352;2022-11-28T08:29:05;101399.09;;;9.34;55.42
31044;BME280;17710;52.520;13.352;2022-11-28T08:31:33;101406.97;;;9.36;55.35
31044;BME280;17710;52.520;13.352;2022-11-28T08:34:02;101391.53;;;9.17;55.91
31044;BME280;17710;52.520;13.352;2022-11-28T08:36:29;101389.19;;;9.02;56.39
31044;BME280;17710;52.520;13.352;2022-11-28T08:38:57;101393.63;;;9.45;55.30
31044;BME280;17710;52.520;13.352;2022-11-28T08:41:24;101399.25;;;9.68;54.55
31044;BME280;17710;52.520;13.352;2022-11-28T08:43:51;101401.28;;;9.57;54.56
31044;BME280;17710;52.520;13.352;2022-11-28T08:46:20;101400.25;;;9.64;54.52
31044;BME280;17710;52.520;13.352;2022-11-28T08:48:48;101403.91;;;9.57;54.30
31044;BME280;17710;52.520;13.352;2022-11-28T08:51:19;101410.25;;;9.47;54.24
31044;BME280;17710;52.520;13.352;2022-11-28T08:53:48;101412.66;;;9.59;54.68
31044;BME280;17710;52.520;13.352;2022-11-28T08:56:15;101411.00;;;9.53;54.15
31044;BME280;17710;52.520;13.352;2022-11-28T08:58:42;101416.28;;;9.53;54.71
31044;BME280;17710;52.520;13.352;2022-11-28T09:01:16;101410.94;;;9.58;54.72
31044;BME280;17710;52.520;13.352;2022-11-28T09:03:45;101405.09;;;9.84;54.08
31044;BME280;17710;52.520;13.352;2022-11-28T09:06:24;101404.72;;;9.99;53.48
31044;BME280;17710;52.520;13.352;2022-11-28T09:08:51;101413.53;;;9.99;53.03
31044;BME280;17710;52.520;13.352;2022-11-28T09:11:20;101415.81;;;10.15;52.82
31044;BME280;17710;52.520;13.352;2022-11-28T09:13:47;101417.72;;;10.47;52.02
31044;BME280;17710;52.520;13.352;2022-11-28T09:16:14;101418.22;;;10.25;51.99
31044;BME280;17710;52.520;13.352;2022-11-28T09:18:44;101410.88;;;9.99;53.57
31044;BME280;17710;52.520;13.352;2022-11-28T09:21:12;101409.50;;;10.23;52.55
31044;BME280;17710;52.520;13.352;2022-11-28T09:23:47;101411.53;;;10.11;52.65
31044;BME280;17710;52.520;13.352;2022-11-28T09:26:20;101413.47;;;10.03;52.76
31044;BME280;17710;52.520;13.352;2022-11-28T09:28:47;101411.63;;;10.05;52.50
31044;BME280;17710;52.520;13.352;2022-11-28T09:31:14;101404.28;;;10.20;52.31
31044;BME280;17710;52.520;13.352;2022-11-28T09:33:43;101408.31;;;10.36;51.45
31044;BME280;17710;52.520;13.352;2022-11-28T09:36:13;101403.25;;;10.63;51.20
31044;BME280;17710;52.520;13.352;2022-11-28T09:39:01;101409.47;;;10.60;51.28
31044;BME280;17710;52.520;13.352;2022-11-28T09:44:20;101400.69;;;10.58;51.50
31044;BME280;17710;52.520;13.352;2022-11-28T09:47:20;101385.66;;;10.62;51.24
31044;BME280;17710;52.520;13.352;2022-11-28T09:50:23;101387.38;;;10.63;50.95
31044;BME280;17710;52.520;13.352;2022-11-28T09:56:48;101380.97;;;10.71;50.36
31044;BME280;17710;52.520;13.352;2022-11-28T09:59:42;101372.78;;;10.48;51.37
31044;BME280;17710;52.520;13.352;2022-11-28T10:02:22;101370.59;;;10.64;50.60
31044;BME280;17710;52.520;13.352;2022-11-28T10:05:14;101376.16;;;10.53;50.65
31044;BME280;17710;52.520;13.352;2022-11-28T10:08:05;101372.38;;;10.63;50.57
31044;BME280;17710;52.520;13.352;2022-11-28T10:11:04;101377.41;;;11.06;50.01
31044;BME280;17710;52.520;13.352;2022-11-28T10:13:56;101378.50;;;10.98;49.64
31044;BME280;17710;52.520;13.352;2022-11-28T10:17:19;101381.31;;;10.92;49.91
31044;BME280;17710;52.520;13.352;2022-11-28T10:19:42;101384.78;;;10.95;49.67
31044;BME280;17710;52.520;13.352;2022-11-28T10:22:18;101387.78;;;10.82;49.96
31044;BME280;17710;52.520;13.352;2022-11-28T10:24:47;101389.75;;;10.73;49.97
31044;BME280;17710;52.520;13.352;2022-11-28T10:27:21;101379.34;;;11.00;49.67
31044;BME280;17710;52.520;13.352;2022-11-28T10:29:57;101385.00;;;10.86;50.00
31044;BME280;17710;52.520;13.352;2022-11-28T10:32:31;101383.22;;;10.87;49.77
31044;BME280;17710;52.520;13.352;2022-11-28T10:35:03;101371.59;;;10.94;49.91
31044;BME280;17710;52.520;13.352;2022-11-28T10:37:34;101372.94;;;11.08;49.13
31044;BME280;17710;52.520;13.352;2022-11-28T10:40:20;101364.22;;;11.05;49.34
31044;BME280;17710;52.520;13.352;2022-11-28T10:42:56;101358.19;;;11.00;49.28
31044;BME280;17710;52.520;13.352;2022-11-28T10:48:39;101359.84;;;10.71;50.27
31044;BME280;17710;52.520;13.352;2022-11-28T10:51:22;101353.63;;;10.72;50.04
31044;BME280;17710;52.520;13.352;2022-11-28T10:54:04;101348.34;;;10.72;50.05
31044;BME280;17710;52.520;13.352;2022-11-28T10:56:46;101355.59;;;10.64;50.23
31044;BME280;17710;52.520;13.352;2022-11-28T10:59:30;101343.47;;;10.90;49.55
31044;BME280;17710;52.520;13.352;2022-11-28T11:02:07;101349.97;;;10.78;49.66
31044;BME280;17710;52.520;13.352;2022-11-28T11:04:44;101346.03;;;10.93;49.25
31044;BME280;17710;52.520;13.352;2022-11-28T11:07:13;101345.88;;;10.99;49.44
31044;BME280;17710;52.520;13.352;2022-11-28T11:09:42;101341.91;;;11.15;48.93
31044;BME280;17710;52.520;13.352;2022-11-28T11:12:14;101336.81;;;11.38;48.31
31044;BME280;17710;52.520;13.352;2022-11-28T11:14:45;101336.91;;;11.35;48.69
31044;BME280;17710;52.520;13.352;2022-11-28T11:17:24;101337.72;;;11.37;48.13
31044;BME280;17710;52.520;13.352;2022-11-28T11:19:51;101336.72;;;11.41;48.42
31044;BME280;17710;52.520;13.352;2022-11-28T11:22:20;101337.44;;;11.46;48.26
31044;BME280;17710;52.520;13.352;2022-11-28T11:25:04;101340.00;;;11.49;48.21
31044;BME280;17710;52.520;13.352;2022-11-28T11:27:31;101333.13;;;11.42;48.36
31044;BME280;17710;52.520;13.352;2022-11-28T11:30:00;101326.50;;;11.58;47.98
31044;BME280;17710;52.520;13.352;2022-11-28T11:32:45;101332.22;;;11.73;47.31
31044;BME280;17710;52.520;13.352;2022-11-28T11:35:17;101332.59;;;11.31;48.55
31044;BME280;17710;52.520;13.352;2022-11-28T11:37:45;101331.44;;;11.41;48.55
31044;BME280;17710;52.520;13.352;2022-11-28T11:40:21;101331.25;;;11.47;48.13
31044;BME280;17710;52.520;13.352;2022-11-28T11:42:52;101336.25;;;11.56;47.71
31044;BME280;17710;52.520;13.352;2022-11-28T11:45:26;101337.44;;;11.76;47.22
31044;BME280;17710;52.520;13.352;2022-11-28T11:47:54;101335.63;;;11.78;47.34
31044;BME280;17710;52.520;13.352;2022-11-28T11:50:22;101336.41;;;11.52;47.54
31044;BME280;17710;52.520;13.352;2022-11-28T11:53:09;101323.88;;;11.57;47.82
31044;BME280;17710;52.520;13.352;2022-11-28T11:55:45;101328.84;;;11.38;48.19
31044;BME280;17710;52.520;13.352;2022-11-28T11:58:18;101319.97;;;11.69;47.05
31044;BME280;17710;52.520;13.352;2022-11-28T12:01:00;101328.25;;;11.58;47.49
31044;BME280;17710;52.520;13.352;2022-11-28T12:03:38;101318.13;;;11.43;47.92
31044;BME280;17710;52.520;13.352;2022-11-28T12:06:49;101312.81;;;11.44;48.19
31044;BME280;17710;52.520;13.352;2022-11-28T12:09:42;101303.25;;;11.09;48.81
31044;BME280;17710;52.520;13.352;2022-11-28T12:12:21;101301.28;;;11.16;48.67
31044;BME280;17710;52.520;13.352;2022-11-28T12:14:48;101299.28;;;11.24;48.71
31044;BME280;17710;52.520;13.352;2022-11-28T12:17:26;101288.31;;;11.38;48.17
31044;BME280;17710;52.520;13.352;2022-11-28T12:20:02;101281.09;;;11.43;47.82
31044;BME280;17710;52.520;13.352;2022-11-28T12:22:39;101284.09;;;11.60;47.67
31044;BME280;17710;52.520;13.352;2022-11-28T12:25:14;101284.28;;;11.54;48.00
31044;BME280;17710;52.520;13.352;2022-11-28T12:27:57;101286.59;;;11.65;47.51
31044;BME280;17710;52.520;13.352;2022-11-28T12:30:30;101277.41;;;11.48;47.94
31044;BME280;17710;52.520;13.352;2022-11-28T12:33:13;101276.47;;;11.49;47.88
31044;BME280;17710;52.520;13.352;2022-11-28T12:35:47;101283.41;;;11.53;47.83
31044;BME280;17710;52.520;13.352;2022-11-28T12:38:25;101275.38;;;11.29;48.19
31044;BME280;17710;52.520;13.352;2022-11-28T12:41:14;101277.03;;;11.31;48.52
31044;BME280;17710;52.520;13.352;2022-11-28T12:43:56;101281.84;;;11.48;48.50
31044;BME280;17710;52.520;13.352;2022-11-28T12:46:29;101278.78;;;11.32;48.36
31044;BME280;17710;52.520;13.352;2022-11-28T12:49:14;101287.06;;;11.49;48.27
31044;BME280;17710;52.520;13.352;2022-11-28T12:51:55;101285.34;;;11.48;48.29
31044;BME280;17710;52.520;13.352;2022-11-28T12:54:37;101283.94;;;11.65;47.68
31044;BME280;17710;52.520;13.352;2022-11-28T12:57:10;101293.09;;;11.54;48.04
31044;BME280;17710;52.520;13.352;2022-11-28T12:59:46;101290.72;;;11.75;47.53
31044;BME280;17710;52.520;13.352;2022-11-28T13:02:24;101279.88;;;11.54;48.01
31044;BME280;17710;52.520;13.352;2022-11-28T13:05:04;101283.88;;;11.68;47.66
31044;BME280;17710;52.520;13.352;2022-11-28T13:07:43;101278.94;;;11.55;47.96
31044;BME280;17710;52.520;13.352;2022-11-28T13:10:19;101277.78;;;11.64;48.02
31044;BME280;17710;52.520;13.352;2022-11-28T13:12:50;101292.03;;;11.60;48.32
31044;BME280;17710;52.520;13.352;2022-11-28T13:15:25;101283.13;;;11.63;48.17
31044;BME280;17710;52.520;13.352;2022-11-28T13:18:00;101273.91;;;11.48;48.37
31044;BME280;17710;52.520;13.352;2022-11-28T13:20:34;101264.06;;;11.51;48.45
31044;BME280;17710;52.520;13.352;2022-11-28T13:23:10;101274.38;;;11.61;48.19
31044;BME280;17710;52.520;13.352;2022-11-28T13:25:48;101269.88;;;11.63;48.36